sensor_id;sensor_type;location;lat;lon;timestamp;temperature;humidity
9772;DHT22;4925;52.588;13.370;2023-01-24T00:01:14;3.30;99.90
9772;DHT22;4925;52.588;13.370;2023-01-24T00:03:40;3.30;99.90
9772;DHT22;4925;52.588;13.370;2023-01-24T00:06:06;3.30;99.90
9772;DHT22;4925;52.588;13.370;2023-01-24T00:08:32;3.30;99.90
9772;DHT22;4925;52.588;13.370;2023-01-24T00:11:02;3.30;99.90
9772;DHT22;4925;52.588;13.370;2023-01-24T00:13:29;3.30;99.90
9772;DHT22;4925;52.588;13.370;2023-01-24T00:18:30;3.30;99.90
9772;DHT22;4925;52.588;13.370;2023-01-24T00:21:09;3.30;99.90
9772;DHT22;4925;52.588;13.370;2023-01-24T00:23:44;3.30;99.90
9772;DHT22;4925;52.588;13.370;2023-01-24T00:26:12;3.20;99.90
9772;DHT22;4925;52.588;13.370;2023-01-24T00:28:38;3.30;99.90
9772;DHT22;4925;52.588;13.370;2023-01-24T00:31:04;3.30;99.90
9772;DHT22;4925;52.588;13.370;2023-01-24T00:33:29;3.40;99.90
9772;DHT22;4925;52.588;13.370;2023-01-24T00:35:55;3.40;99.90
9772;DHT22;4925;52.588;13.370;2023-01-24T00:38:21;3.40;99.90
9772;DHT22;4925;52.588;13.370;2023-01-24T00:40:47;3.30;99.90
9772;DHT22;4925;52.588;13.370;2023-01-24T00:43:13;3.30;99.90
9772;DHT22;4925;52.588;13.370;2023-01-24T00:45:39;3.30;99.90
9772;DHT22;4925;52.588;13.370;2023-01-24T00:48:06;3.40;99.90
9772;DHT22;4925;52.588;13.370;2023-01-24T00:50:32;3.30;99.90
9772;DHT22;4925;52.588;13.370;2023-01-24T00:52:58;3.40;99.90
9772;DHT22;4925;52.588;13.370;2023-01-24T00:55:23;3.40;99.90
9772;DHT22;4925;52.588;13.370;2023-01-24T00:57:49;3.40;99.90
9772;DHT22;4925;52.588;13.370;2023-01-24T01:00:16;3.30;99.90
9772;DHT22;4925;52.588;13.370;2023-01-24T01:02:41;3.40;99.90
9772;DHT22;4925;52.588;13.370;2023-01-24T01:05:07;3.40;99.90
9772;DHT22;4925;52.588;13.370;2023-01-24T01:07:34;3.40;99.90
9772;DHT22;4925;52.588;13.370;2023-01-24T01:09:59;3.30;99.90
9772;DHT22;4925;52.588;13.370;2023-01-24T01:12:25;3.30;99.90
9772;DHT22;4925;52.588;13.370;2023-01-24T01:14:51;3.30;99.90
9772;DHT22;4925;52.588;13.370;2023-01-24T01:17:16;3.30;99.90
9772;DHT22;4925;52.588;13.370;2023-01-24T01:19:42;3.30;99.90
9772;DHT22;4925;52.588;13.370;2023-01-24T01:22:08;3.20;99.90
9772;DHT22;4925;52.588;13.370;2023-01-24T01:24:34;3.20;99.90
9772;DHT22;4925;52.588;13.370;2023-01-24T01:26:59;3.20;99.90
9772;DHT22;4925;52.588;13.370;2023-01-24T01:29:25;3.20;99.90
9772;DHT22;4925;52.588;13.370;2023-01-24T01:31:51;3.30;99.90
9772;DHT22;4925;52.588;13.370;2023-01-24T01:34:17;3.30;99.90
9772;DHT22;4925;52.588;13.370;2023-01-24T01:36:42;3.30;99.90
9772;DHT22;4925;52.588;13.370;2023-01-24T01:39:08;3.30;99.90
9772;DHT22;4925;52.588;13.370;2023-01-24T01:41:34;3.20;99.90
9772;DHT22;4925;52.588;13.370;2023-01-24T01:47:01;3.20;99.90
9772;DHT22;4925;52.588;13.370;2023-01-24T01:49:27;3.20;99.90
9772;DHT22;4925;52.588;13.370;2023-01-24T01:52:00;3.10;99.90
9772;DHT22;4925;52.588;13.370;2023-01-24T01:54:39;3.10;99.90
9772;DHT22;4925;52.588;13.370;2023-01-24T01:57:14;2.90;99.90
9772;DHT22;4925;52.588;13.370;2023-01-24T01:59:46;2.90;99.90
9772;DHT22;4925;52.588;13.370;2023-01-24T02:02:13;2.90;99.90
9772;DHT22;4925;52.588;13.370;2023-01-24T02:04:44;3.00;99.90
9772;DHT22;4925;52.588;13.370;2023-01-24T02:07:23;3.00;99.90
9772;DHT22;4925;52.588;13.370;2023-01-24T02:09:51;3.00;99.90
9772;DHT22;4925;52.588;13.370;2023-01-24T02:12:33;2.90;99.90
9772;DHT22;4925;52.588;13.370;2023-01-24T02:15:04;2.80;99.90
9772;DHT22;4925;52.588;13.370;2023-01-24T02:17:49;2.80;99.90
9772;DHT22;4925;52.588;13.370;2023-01-24T02:20:41;2.80;99.90
9772;DHT22;4925;52.588;13.370;2023-01-24T02:28:32;2.80;99.90
9772;DHT22;4925;52.588;13.370;2023-01-24T02:30:59;2.70;99.90
9772;DHT22;4925;52.588;13.370;2023-01-24T02:33:25;2.70;99.90
9772;DHT22;4925;52.588;13.370;2023-01-24T02:38:50;2.60;99.90
9772;DHT22;4925;52.588;13.370;2023-01-24T02:41:19;2.50;99.90
9772;DHT22;4925;52.588;13.370;2023-01-24T02:43:49;2.50;99.90
9772;DHT22;4925;52.588;13.370;2023-01-24T02:46:17;2.50;99.90
9772;DHT22;4925;52.588;13.370;2023-01-24T02:48:43;2.60;99.90
9772;DHT22;4925;52.588;13.370;2023-01-24T02:51:08;2.60;99.90
9772;DHT22;4925;52.588;13.370;2023-01-24T02:53:53;2.70;99.90
9772;DHT22;4925;52.588;13.370;2023-01-24T02:56:18;2.70;99.90
9772;DHT22;4925;52.588;13.370;2023-01-24T02:59:02;2.70;99.90
9772;DHT22;4925;52.588;13.370;2023-01-24T03:01:28;2.60;99.90
9772;DHT22;4925;52.588;13.370;2023-01-24T03:03:56;2.60;99.90
9772;DHT22;4925;52.588;13.370;2023-01-24T03:06:23;2.60;99.90
9772;DHT22;4925;52.588;13.370;2023-01-24T03:08:48;2.60;99.90
9772;DHT22;4925;52.588;13.370;2023-01-24T03:11:14;2.50;99.90
9772;DHT22;4925;52.588;13.370;2023-01-24T03:13:39;2.50;99.90
9772;DHT22;4925;52.588;13.370;2023-01-24T03:16:24;2.50;99.90
9772;DHT22;4925;52.588;13.370;2023-01-24T03:19:08;2.60;99.90
9772;DHT22;4925;52.588;13.370;2023-01-24T03:21:52;2.60;99.90
9772;DHT22;4925;52.588;13.370;2023-01-24T03:24:36;2.60;99.90
9772;DHT22;4925;52.588;13.370;2023-01-24T03:27:21;2.60;99.90
9772;DHT22;4925;52.588;13.370;2023-01-24T03:30:07;2.60;99.90
9772;DHT22;4925;52.588;13.370;2023-01-24T03:32:51;2.60;99.90
9772;DHT22;4925;52.588;13.370;2023-01-24T03:35:41;2.60;99.90
9772;DHT22;4925;52.588;13.370;2023-01-24T03:38:11;2.60;99.90
9772;DHT22;4925;52.588;13.370;2023-01-24T03:40:55;2.50;99.90
9772;DHT22;4925;52.588;13.370;2023-01-24T03:43:20;2.40;99.90
9772;DHT22;4925;52.588;13.370;2023-01-24T03:45:52;2.50;99.90
9772;DHT22;4925;52.588;13.370;2023-01-24T03:48:18;2.50;99.90
9772;DHT22;4925;52.588;13.370;2023-01-24T03:50:52;2.50;99.90
9772;DHT22;4925;52.588;13.370;2023-01-24T03:53:37;2.60;99.90
9772;DHT22;4925;52.588;13.370;2023-01-24T03:56:03;2.60;99.90
9772;DHT22;4925;52.588;13.370;2023-01-24T03:58:31;2.60;99.90
9772;DHT22;4925;52.588;13.370;2023-01-24T04:00:57;2.70;99.90
9772;DHT22;4925;52.588;13.370;2023-01-24T04:03:24;2.60;99.90
9772;DHT22;4925;52.588;13.370;2023-01-24T04:05:50;2.70;99.90
9772;DHT22;4925;52.588;13.370;2023-01-24T04:08:17;2.70;99.90
9772;DHT22;4925;52.588;13.370;2023-01-24T04:10:43;2.70;99.90
9772;DHT22;4925;52.588;13.370;2023-01-24T04:13:10;2.70;99.90
9772;DHT22;4925;52.588;13.370;2023-01-24T04:15:36;2.60;99.90
9772;DHT22;4925;52.588;13.370;2023-01-24T04:18:03;2.70;99.90
9772;DHT22;4925;52.588;13.370;2023-01-24T04:20:31;2.60;99.90
9772;DHT22;4925;52.588;13.370;2023-01-24T04:23:00;2.70;99.90
9772;DHT22;4925;52.588;13.370;2023-01-24T04:25:26;2.70;99.90
9772;DHT22;4925;52.588;13.370;2023-01-24T04:27:52;2.70;99.90
9772;DHT22;4925;52.588;13.370;2023-01-24T04:30:18;2.70;99.90
9772;DHT22;4925;52.588;13.370;2023-01-24T04:32:44;2.70;99.90
9772;DHT22;4925;52.588;13.370;2023-01-24T04:35:16;2.80;99.90
9772;DHT22;4925;52.588;13.370;2023-01-24T04:37:41;2.80;99.90
9772;DHT22;4925;52.588;13.370;2023-01-24T04:40:09;2.80;99.90
9772;DHT22;4925;52.588;13.370;2023-01-24T04:42:36;2.70;99.90
9772;DHT22;4925;52.588;13.370;2023-01-24T04:45:02;2.70;99.90
9772;DHT22;4925;52.588;13.370;2023-01-24T04:47:28;2.70;99.90
9772;DHT22;4925;52.588;13.370;2023-01-24T04:49:53;2.70;99.90
9772;DHT22;4925;52.588;13.370;2023-01-24T04:52:19;2.70;99.90
9772;DHT22;4925;52.588;13.370;2023-01-24T04:54:45;2.70;99.90
9772;DHT22;4925;52.588;13.370;2023-01-24T04:57:13;2.80;99.90
9772;DHT22;4925;52.588;13.370;2023-01-24T04:59:38;2.70;99.90
9772;DHT22;4925;52.588;13.370;2023-01-24T05:02:04;2.80;99.90
9772;DHT22;4925;52.588;13.370;2023-01-24T05:04:30;2.90;99.90
9772;DHT22;4925;52.588;13.370;2023-01-24T05:06:56;2.80;99.90
9772;DHT22;4925;52.588;13.370;2023-01-24T05:09:21;2.90;99.90
9772;DHT22;4925;52.588;13.370;2023-01-24T05:11:47;2.80;99.90
9772;DHT22;4925;52.588;13.370;2023-01-24T05:14:13;2.80;99.90
9772;DHT22;4925;52.588;13.370;2023-01-24T05:16:39;2.80;99.90
9772;DHT22;4925;52.588;13.370;2023-01-24T05:19:05;2.80;99.90
9772;DHT22;4925;52.588;13.370;2023-01-24T05:21:31;2.80;99.90
9772;DHT22;4925;52.588;13.370;2023-01-24T05:23:57;2.70;99.90
9772;DHT22;4925;52.588;13.370;2023-01-24T05:26:24;2.70;99.90
9772;DHT22;4925;52.588;13.370;2023-01-24T05:28:50;2.60;99.90
9772;DHT22;4925;52.588;13.370;2023-01-24T05:31:16;2.60;99.90
9772;DHT22;4925;52.588;13.370;2023-01-24T05:33:42;2.60;99.90
9772;DHT22;4925;52.588;13.370;2023-01-24T05:36:11;2.70;99.90
9772;DHT22;4925;52.588;13.370;2023-01-24T05:38:37;2.70;99.90
9772;DHT22;4925;52.588;13.370;2023-01-24T05:41:05;2.70;99.90
9772;DHT22;4925;52.588;13.370;2023-01-24T05:43:31;2.70;99.90
9772;DHT22;4925;52.588;13.370;2023-01-24T05:46:18;2.80;99.90
9772;DHT22;4925;52.588;13.370;2023-01-24T05:48:45;2.90;99.90
9772;DHT22;4925;52.588;13.370;2023-01-24T05:51:13;2.80;99.90
9772;DHT22;4925;52.588;13.370;2023-01-24T05:53:40;2.70;99.90
9772;DHT22;4925;52.588;13.370;2023-01-24T05:56:10;2.70;99.90
9772;DHT22;4925;52.588;13.370;2023-01-24T05:58:38;2.70;99.90
9772;DHT22;4925;52.588;13.370;2023-01-24T06:01:14;2.80;99.90
9772;DHT22;4925;52.588;13.370;2023-01-24T06:03:46;2.90;99.90
9772;DHT22;4925;52.588;13.370;2023-01-24T06:06:13;2.90;99.90
9772;DHT22;4925;52.588;13.370;2023-01-24T06:08:39;2.80;99.90
9772;DHT22;4925;52.588;13.370;2023-01-24T06:11:09;2.90;99.90
9772;DHT22;4925;52.588;13.370;2023-01-24T06:13:35;2.90;99.90
9772;DHT22;4925;52.588;13.370;2023-01-24T06:16:15;2.90;99.90
9772;DHT22;4925;52.588;13.370;2023-01-24T06:18:42;2.90;99.90
9772;DHT22;4925;52.588;13.370;2023-01-24T06:23:46;2.90;99.90
9772;DHT22;4925;52.588;13.370;2023-01-24T06:26:11;2.90;99.90
9772;DHT22;4925;52.588;13.370;2023-01-24T06:28:38;3.00;99.90
9772;DHT22;4925;52.588;13.370;2023-01-24T06:39:15;3.00;99.90
9772;DHT22;4925;52.588;13.370;2023-01-24T06:41:41;3.10;99.90
9772;DHT22;4925;52.588;13.370;2023-01-24T06:44:10;3.10;99.90
9772;DHT22;4925;52.588;13.370;2023-01-24T06:46:36;3.10;99.90
9772;DHT22;4925;52.588;13.370;2023-01-24T06:49:01;3.10;99.90
9772;DHT22;4925;52.588;13.370;2023-01-24T06:51:27;3.00;99.90
9772;DHT22;4925;52.588;13.370;2023-01-24T06:53:53;3.00;99.90
9772;DHT22;4925;52.588;13.370;2023-01-24T06:56:18;2.90;99.90
9772;DHT22;4925;52.588;13.370;2023-01-24T06:58:44;2.90;99.90
9772;DHT22;4925;52.588;13.370;2023-01-24T07:01:10;2.90;99.90
9772;DHT22;4925;52.588;13.370;2023-01-24T07:03:35;2.80;99.90
9772;DHT22;4925;52.588;13.370;2023-01-24T07:06:01;3.00;99.90
9772;DHT22;4925;52.588;13.370;2023-01-24T07:08:27;2.90;99.90
9772;DHT22;4925;52.588;13.370;2023-01-24T07:10:52;3.00;99.90
9772;DHT22;4925;52.588;13.370;2023-01-24T07:13:18;3.00;99.90
9772;DHT22;4925;52.588;13.370;2023-01-24T07:15:44;3.00;99.90
9772;DHT22;4925;52.588;13.370;2023-01-24T07:18:12;3.10;99.90
9772;DHT22;4925;52.588;13.370;2023-01-24T07:20:38;3.10;99.90
9772;DHT22;4925;52.588;13.370;2023-01-24T07:23:04;3.00;99.90
9772;DHT22;4925;52.588;13.370;2023-01-24T07:25:30;3.10;99.90
9772;DHT22;4925;52.588;13.370;2023-01-24T07:27:56;3.10;99.90
9772;DHT22;4925;52.588;13.370;2023-01-24T07:30:22;3.10;99.90
9772;DHT22;4925;52.588;13.370;2023-01-24T07:32:48;3.10;99.90
9772;DHT22;4925;52.588;13.370;2023-01-24T07:35:13;3.20;99.90
9772;DHT22;4925;52.588;13.370;2023-01-24T07:37:39;3.20;99.90
9772;DHT22;4925;52.588;13.370;2023-01-24T07:40:05;3.20;99.90
9772;DHT22;4925;52.588;13.370;2023-01-24T07:42:31;3.00;99.90
9772;DHT22;4925;52.588;13.370;2023-01-24T07:44:56;3.10;99.90
9772;DHT22;4925;52.588;13.370;2023-01-24T07:47:23;3.10;99.90
9772;DHT22;4925;52.588;13.370;2023-01-24T07:49:51;3.20;99.90
9772;DHT22;4925;52.588;13.370;2023-01-24T07:52:17;3.20;99.90
9772;DHT22;4925;52.588;13.370;2023-01-24T07:54:43;3.20;99.90
9772;DHT22;4925;52.588;13.370;2023-01-24T07:57:08;3.20;99.90
9772;DHT22;4925;52.588;13.370;2023-01-24T07:59:34;3.20;99.90
9772;DHT22;4925;52.588;13.370;2023-01-24T08:02:00;3.30;99.90
9772;DHT22;4925;52.588;13.370;2023-01-24T08:04:25;3.30;99.90
9772;DHT22;4925;52.588;13.370;2023-01-24T08:06:51;3.30;99.90
9772;DHT22;4925;52.588;13.370;2023-01-24T08:09:35;3.30;99.90
9772;DHT22;4925;52.588;13.370;2023-01-24T08:12:01;3.30;99.90
9772;DHT22;4925;52.588;13.370;2023-01-24T08:14:26;3.30;99.90
9772;DHT22;4925;52.588;13.370;2023-01-24T08:16:52;3.30;99.90
9772;DHT22;4925;52.588;13.370;2023-01-24T08:19:18;3.20;99.90
9772;DHT22;4925;52.588;13.370;2023-01-24T08:21:43;3.20;99.90
9772;DHT22;4925;52.588;13.370;2023-01-24T08:24:09;3.20;99.90
9772;DHT22;4925;52.588;13.370;2023-01-24T08:26:35;3.20;99.90
9772;DHT22;4925;52.588;13.370;2023-01-24T08:29:00;3.20;99.90
9772;DHT22;4925;52.588;13.370;2023-01-24T08:31:26;3.20;99.90
9772;DHT22;4925;52.588;13.370;2023-01-24T08:33:52;3.20;99.90
9772;DHT22;4925;52.588;13.370;2023-01-24T08:36:18;3.10;99.90
9772;DHT22;4925;52.588;13.370;2023-01-24T08:38:45;3.10;99.90
9772;DHT22;4925;52.588;13.370;2023-01-24T08:41:10;3.00;99.90
9772;DHT22;4925;52.588;13.370;2023-01-24T08:43:36;3.10;99.90
9772;DHT22;4925;52.588;13.370;2023-01-24T08:46:02;3.10;99.90
9772;DHT22;4925;52.588;13.370;2023-01-24T08:48:29;3.10;99.90
9772;DHT22;4925;52.588;13.370;2023-01-24T08:50:55;3.30;99.90
9772;DHT22;4925;52.588;13.370;2023-01-24T08:53:20;3.30;99.90
9772;DHT22;4925;52.588;13.370;2023-01-24T08:55:49;3.30;99.90
9772;DHT22;4925;52.588;13.370;2023-01-24T08:58:16;3.30;99.90
9772;DHT22;4925;52.588;13.370;2023-01-24T09:00:41;3.30;99.90
9772;DHT22;4925;52.588;13.370;2023-01-24T09:03:09;3.20;99.90
9772;DHT22;4925;52.588;13.370;2023-01-24T09:05:35;3.20;99.90
9772;DHT22;4925;52.588;13.370;2023-01-24T09:08:02;3.30;99.90
9772;DHT22;4925;52.588;13.370;2023-01-24T09:10:27;3.40;99.90
9772;DHT22;4925;52.588;13.370;2023-01-24T09:12:53;3.40;99.90
9772;DHT22;4925;52.588;13.370;2023-01-24T09:15:18;3.30;99.90
9772;DHT22;4925;52.588;13.370;2023-01-24T09:17:44;3.40;99.90
9772;DHT22;4925;52.588;13.370;2023-01-24T09:20:10;3.40;99.90
9772;DHT22;4925;52.588;13.370;2023-01-24T09:22:36;3.30;99.90
9772;DHT22;4925;52.588;13.370;2023-01-24T09:25:02;3.20;99.90
9772;DHT22;4925;52.588;13.370;2023-01-24T09:27:29;3.30;99.90
9772;DHT22;4925;52.588;13.370;2023-01-24T09:29:55;3.30;99.90
9772;DHT22;4925;52.588;13.370;2023-01-24T09:32:20;3.50;99.90
9772;DHT22;4925;52.588;13.370;2023-01-24T09:34:46;3.40;99.90
9772;DHT22;4925;52.588;13.370;2023-01-24T09:37:18;3.40;99.90
9772;DHT22;4925;52.588;13.370;2023-01-24T09:39:44;3.40;99.90
9772;DHT22;4925;52.588;13.370;2023-01-24T09:42:35;3.40;99.90
9772;DHT22;4925;52.588;13.370;2023-01-24T09:50:19;3.60;99.90
9772;DHT22;4925;52.588;13.370;2023-01-24T09:52:49;3.60;99.90
9772;DHT22;4925;52.588;13.370;2023-01-24T09:55:30;3.60;99.90
9772;DHT22;4925;52.588;13.370;2023-01-24T10:00:44;3.70;99.90
9772;DHT22;4925;52.588;13.370;2023-01-24T10:03:21;3.80;99.90
9772;DHT22;4925;52.588;13.370;2023-01-24T10:05:55;3.90;99.90
9772;DHT22;4925;52.588;13.370;2023-01-24T10:19:06;4.10;99.90
9772;DHT22;4925;52.588;13.370;2023-01-24T10:24:59;4.30;99.90
9772;DHT22;4925;52.588;13.370;2023-01-24T10:27:32;4.40;99.90
9772;DHT22;4925;52.588;13.370;2023-01-24T10:30:14;4.50;99.90
9772;DHT22;4925;52.588;13.370;2023-01-24T10:32:41;4.60;99.90
9772;DHT22;4925;52.588;13.370;2023-01-24T10:35:19;4.80;99.90
9772;DHT22;4925;52.588;13.370;2023-01-24T10:37:51;4.80;99.90
9772;DHT22;4925;52.588;13.370;2023-01-24T10:40:22;5.00;99.90
9772;DHT22;4925;52.588;13.370;2023-01-24T10:42:50;4.80;99.90
9772;DHT22;4925;52.588;13.370;2023-01-24T10:48:18;4.70;99.90
9772;DHT22;4925;52.588;13.370;2023-01-24T10:50:48;4.60;99.90
9772;DHT22;4925;52.588;13.370;2023-01-24T10:53:25;4.50;99.90
9772;DHT22;4925;52.588;13.370;2023-01-24T10:56:01;4.60;99.90
9772;DHT22;4925;52.588;13.370;2023-01-24T11:01:21;4.60;99.90
9772;DHT22;4925;52.588;13.370;2023-01-24T11:03:49;4.80;99.90
9772;DHT22;4925;52.588;13.370;2023-01-24T11:06:37;4.80;99.90
9772;DHT22;4925;52.588;13.370;2023-01-24T11:09:12;4.80;99.90
9772;DHT22;4925;52.588;13.370;2023-01-24T11:11:56;4.80;99.90
9772;DHT22;4925;52.588;13.370;2023-01-24T11:14:32;4.60;99.90
9772;DHT22;4925;52.588;13.370;2023-01-24T11:17:00;4.50;99.90
9772;DHT22;4925;52.588;13.370;2023-01-24T11:22:18;4.50;99.90
9772;DHT22;4925;52.588;13.370;2023-01-24T11:24:45;4.50;99.90
9772;DHT22;4925;52.588;13.370;2023-01-24T11:27:17;4.60;99.90
9772;DHT22;4925;52.588;13.370;2023-01-24T11:29:43;4.60;99.90
9772;DHT22;4925;52.588;13.370;2023-01-24T11:42:30;4.80;99.90
9772;DHT22;4925;52.588;13.370;2023-01-24T11:45:36;4.90;99.90
9772;DHT22;4925;52.588;13.370;2023-01-24T11:48:18;5.10;99.90
9772;DHT22;4925;52.588;13.370;2023-01-24T11:51:29;5.10;99.90
9772;DHT22;4925;52.588;13.370;2023-01-24T11:57:02;5.00;99.90
9772;DHT22;4925;52.588;13.370;2023-01-24T12:13:41;5.10;99.90
9772;DHT22;4925;52.588;13.370;2023-01-24T12:21:36;5.30;99.90
9772;DHT22;4925;52.588;13.370;2023-01-24T12:24:10;5.20;99.90
9772;DHT22;4925;52.588;13.370;2023-01-24T12:26:47;5.30;99.90
9772;DHT22;4925;52.588;13.370;2023-01-24T12:29:21;5.30;99.90
9772;DHT22;4925;52.588;13.370;2023-01-24T12:32:14;5.30;99.90
9772;DHT22;4925;52.588;13.370;2023-01-24T12:38:04;5.30;99.90
9772;DHT22;4925;52.588;13.370;2023-01-24T12:48:40;5.00;99.90
9772;DHT22;4925;52.588;13.370;2023-01-24T12:51:31;5.00;99.90
9772;DHT22;4925;52.588;13.370;2023-01-24T12:56:44;5.20;99.90
9772;DHT22;4925;52.588;13.370;2023-01-24T12:59:13;5.10;99.90
9772;DHT22;4925;52.588;13.370;2023-01-24T13:02:03;5.00;99.90
9772;DHT22;4925;52.588;13.370;2023-01-24T13:12:41;4.80;99.90
9772;DHT22;4925;52.588;13.370;2023-01-24T13:15:26;4.80;99.90
9772;DHT22;4925;52.588;13.370;2023-01-24T13:20:46;4.80;99.90
9772;DHT22;4925;52.588;13.370;2023-01-24T13:26:24;4.60;99.90
9772;DHT22;4925;52.588;13.370;2023-01-24T13:31:50;4.80;99.90
9772;DHT22;4925;52.588;13.370;2023-01-24T13:34:20;4.90;99.90
9772;DHT22;4925;52.588;13.370;2023-01-24T13:36:49;4.90;99.90
9772;DHT22;4925;52.588;13.370;2023-01-24T13:42:19;5.00;99.90
9772;DHT22;4925;52.588;13.370;2023-01-24T13:44:45;5.00;99.90
9772;DHT22;4925;52.588;13.370;2023-01-24T13:50:01;5.00;99.90
9772;DHT22;4925;52.588;13.370;2023-01-24T13:54:58;4.90;99.90
9772;DHT22;4925;52.588;13.370;2023-01-24T13:57:33;4.80;99.90
9772;DHT22;4925;52.588;13.370;2023-01-24T14:03:38;5.00;99.90
9772;DHT22;4925;52.588;13.370;2023-01-24T14:06:11;4.80;99.90
9772;DHT22;4925;52.588;13.370;2023-01-24T14:08:46;4.90;99.90
9772;DHT22;4925;52.588;13.370;2023-01-24T14:11:18;4.90;99.90
9772;DHT22;4925;52.588;13.370;2023-01-24T14:13:58;5.10;99.90
9772;DHT22;4925;52.588;13.370;2023-01-24T14:24:35;4.90;99.90
9772;DHT22;4925;52.588;13.370;2023-01-24T14:29:42;5.10;99.90
9772;DHT22;4925;52.588;13.370;2023-01-24T14:32:34;5.00;99.90
9772;DHT22;4925;52.588;13.370;2023-01-24T14:35:13;5.00;99.90
9772;DHT22;4925;52.588;13.370;2023-01-24T14:37:39;5.00;99.90
9772;DHT22;4925;52.588;13.370;2023-01-24T14:40:19;5.00;99.90
9772;DHT22;4925;52.588;13.370;2023-01-24T14:42:45;4.90;99.90
9772;DHT22;4925;52.588;13.370;2023-01-24T14:45:22;5.00;99.90
9772;DHT22;4925;52.588;13.370;2023-01-24T14:47:49;4.80;99.90
9772;DHT22;4925;52.588;13.370;2023-01-24T14:50:31;4.80;99.90
9772;DHT22;4925;52.588;13.370;2023-01-24T14:53:02;4.80;99.90
9772;DHT22;4925;52.588;13.370;2023-01-24T14:55:32;4.80;99.90
9772;DHT22;4925;52.588;13.370;2023-01-24T14:58:20;4.90;99.90
9772;DHT22;4925;52.588;13.370;2023-01-24T15:00:49;4.90;99.90
9772;DHT22;4925;52.588;13.370;2023-01-24T15:03:20;4.90;99.90
9772;DHT22;4925;52.588;13.370;2023-01-24T15:05:56;4.90;99.90
9772;DHT22;4925;52.588;13.370;2023-01-24T15:08:22;4.90;99.90
9772;DHT22;4925;52.588;13.370;2023-01-24T15:11:02;4.80;99.90
9772;DHT22;4925;52.588;13.370;2023-01-24T15:13:43;4.80;99.90
9772;DHT22;4925;52.588;13.370;2023-01-24T15:16:25;4.80;99.90
9772;DHT22;4925;52.588;13.370;2023-01-24T15:19:02;4.80;99.90
9772;DHT22;4925;52.588;13.370;2023-01-24T15:21:38;4.80;99.90
9772;DHT22;4925;52.588;13.370;2023-01-24T15:24:05;4.80;99.90
9772;DHT22;4925;52.588;13.370;2023-01-24T15:26:39;4.80;99.90
9772;DHT22;4925;52.588;13.370;2023-01-24T15:29:38;4.70;99.90
9772;DHT22;4925;52.588;13.370;2023-01-24T15:38:34;4.70;99.90
9772;DHT22;4925;52.588;13.370;2023-01-24T15:49:57;4.70;99.90
9772;DHT22;4925;52.588;13.370;2023-01-24T15:52:23;4.60;99.90
9772;DHT22;4925;52.588;13.370;2023-01-24T15:54:57;4.70;99.90
9772;DHT22;4925;52.588;13.370;2023-01-24T15:57:32;4.70;99.90
9772;DHT22;4925;52.588;13.370;2023-01-24T16:00:23;4.80;99.90
9772;DHT22;4925;52.588;13.370;2023-01-24T16:02:49;4.80;99.90
9772;DHT22;4925;52.588;13.370;2023-01-24T16:05:17;4.90;99.90
9772;DHT22;4925;52.588;13.370;2023-01-24T16:07:43;4.90;99.90
9772;DHT22;4925;52.588;13.370;2023-01-24T16:10:12;4.80;99.90
9772;DHT22;4925;52.588;13.370;2023-01-24T16:12:38;4.80;99.90
9772;DHT22;4925;52.588;13.370;2023-01-24T16:15:04;4.80;99.90
9772;DHT22;4925;52.588;13.370;2023-01-24T16:17:30;4.80;99.90
9772;DHT22;4925;52.588;13.370;2023-01-24T16:19:56;4.80;99.90
9772;DHT22;4925;52.588;13.370;2023-01-24T16:22:22;4.70;99.90
9772;DHT22;4925;52.588;13.370;2023-01-24T16:24:48;4.70;99.90
9772;DHT22;4925;52.588;13.370;2023-01-24T16:27:14;4.70;99.90
9772;DHT22;4925;52.588;13.370;2023-01-24T16:29:40;4.60;99.90
9772;DHT22;4925;52.588;13.370;2023-01-24T16:32:21;4.50;99.90
9772;DHT22;4925;52.588;13.370;2023-01-24T16:34:48;4.60;99.90
9772;DHT22;4925;52.588;13.370;2023-01-24T16:37:14;4.60;99.90
9772;DHT22;4925;52.588;13.370;2023-01-24T16:39:39;4.40;99.90
9772;DHT22;4925;52.588;13.370;2023-01-24T16:42:09;4.50;99.90
9772;DHT22;4925;52.588;13.370;2023-01-24T16:44:37;4.50;99.90
9772;DHT22;4925;52.588;13.370;2023-01-24T16:47:03;4.50;99.90
9772;DHT22;4925;52.588;13.370;2023-01-24T16:49:29;4.60;99.90
9772;DHT22;4925;52.588;13.370;2023-01-24T16:51:54;4.60;99.90
9772;DHT22;4925;52.588;13.370;2023-01-24T16:54:20;4.60;99.90
9772;DHT22;4925;52.588;13.370;2023-01-24T16:56:45;4.50;99.90
9772;DHT22;4925;52.588;13.370;2023-01-24T16:59:12;4.60;99.90
9772;DHT22;4925;52.588;13.370;2023-01-24T17:01:39;4.60;99.90
9772;DHT22;4925;52.588;13.370;2023-01-24T17:04:05;4.50;99.90
9772;DHT22;4925;52.588;13.370;2023-01-24T17:06:30;4.50;99.90
9772;DHT22;4925;52.588;13.370;2023-01-24T17:08:56;4.50;99.90
9772;DHT22;4925;52.588;13.370;2023-01-24T17:11:22;4.40;99.90
9772;DHT22;4925;52.588;13.370;2023-01-24T17:13:49;4.50;99.90
9772;DHT22;4925;52.588;13.370;2023-01-24T17:16:15;4.40;99.90
9772;DHT22;4925;52.588;13.370;2023-01-24T17:18:41;4.40;99.90
9772;DHT22;4925;52.588;13.370;2023-01-24T17:21:13;4.50;99.90
9772;DHT22;4925;52.588;13.370;2023-01-24T17:23:39;4.40;99.90
9772;DHT22;4925;52.588;13.370;2023-01-24T17:26:08;4.40;99.90
9772;DHT22;4925;52.588;13.370;2023-01-24T17:28:37;4.40;99.90
9772;DHT22;4925;52.588;13.370;2023-01-24T17:31:08;4.50;99.90
9772;DHT22;4925;52.588;13.370;2023-01-24T17:33:33;4.40;99.90
9772;DHT22;4925;52.588;13.370;2023-01-24T17:35:59;4.40;99.90
9772;DHT22;4925;52.588;13.370;2023-01-24T17:38:25;4.40;99.90
9772;DHT22;4925;52.588;13.370;2023-01-24T17:40:51;4.00;99.90
9772;DHT22;4925;52.588;13.370;2023-01-24T17:43:17;3.80;99.90
9772;DHT22;4925;52.588;13.370;2023-01-24T17:45:54;4.00;99.90
9772;DHT22;4925;52.588;13.370;2023-01-24T17:48:20;3.90;99.90
9772;DHT22;4925;52.588;13.370;2023-01-24T17:50:47;4.20;99.90
9772;DHT22;4925;52.588;13.370;2023-01-24T17:53:14;4.30;99.90
9772;DHT22;4925;52.588;13.370;2023-01-24T17:55:40;4.30;99.90
9772;DHT22;4925;52.588;13.370;2023-01-24T17:58:05;4.30;99.90
9772;DHT22;4925;52.588;13.370;2023-01-24T18:00:31;4.40;99.90
9772;DHT22;4925;52.588;13.370;2023-01-24T18:02:57;4.40;99.90
9772;DHT22;4925;52.588;13.370;2023-01-24T18:05:23;4.40;99.90
9772;DHT22;4925;52.588;13.370;2023-01-24T18:07:49;4.40;99.90
9772;DHT22;4925;52.588;13.370;2023-01-24T18:10:15;4.30;99.90
9772;DHT22;4925;52.588;13.370;2023-01-24T18:12:41;4.20;99.90
9772;DHT22;4925;52.588;13.370;2023-01-24T18:15:07;4.30;99.90
9772;DHT22;4925;52.588;13.370;2023-01-24T18:17:34;4.30;99.90
9772;DHT22;4925;52.588;13.370;2023-01-24T18:20:00;4.40;99.90
9772;DHT22;4925;52.588;13.370;2023-01-24T18:22:25;4.40;99.90
9772;DHT22;4925;52.588;13.370;2023-01-24T18:24:51;4.50;99.90
9772;DHT22;4925;52.588;13.370;2023-01-24T18:27:17;4.50;99.90
9772;DHT22;4925;52.588;13.370;2023-01-24T18:29:45;4.50;99.90
9772;DHT22;4925;52.588;13.370;2023-01-24T18:32:11;4.50;99.90
9772;DHT22;4925;52.588;13.370;2023-01-24T18:34:37;4.50;99.90
9772;DHT22;4925;52.588;13.370;2023-01-24T18:37:02;4.40;99.90
9772;DHT22;4925;52.588;13.370;2023-01-24T18:39:28;4.40;99.90
9772;DHT22;4925;52.588;13.370;2023-01-24T18:41:54;4.50;99.90
9772;DHT22;4925;52.588;13.370;2023-01-24T18:44:19;4.40;99.90
9772;DHT22;4925;52.588;13.370;2023-01-24T18:46:45;4.50;99.90
9772;DHT22;4925;52.588;13.370;2023-01-24T18:49:11;4.60;99.90
9772;DHT22;4925;52.588;13.370;2023-01-24T18:51:36;4.60;99.90
9772;DHT22;4925;52.588;13.370;2023-01-24T18:54:03;4.60;99.90